Time;durP1;ratioP1;P1;durP2;ratioP2;P2;SDS_P1;SDS_P2;PMS_P1;PMS_P2;Temp;Humidity;BMP_temperature;BMP_pressure;BME280_temperature;BME280_humidity;BME280_pressure;Samples;Min_cycle;Max_cycle;Signal;HPM_P1;HPM_P2
2020/12/30 00:00:37;;;;;;;0.90;0.50;;;;;;;;;;5052335;28;20044;-16
2020/12/30 00:03:03;;;;;;;1.10;0.70;;;;;;;;;;5050903;28;20499;-18
2020/12/30 00:05:28;;;;;;;0.45;0.30;;;;;;;;;;5052290;28;20074;-17
2020/12/30 00:07:54;;;;;;;0.15;0.15;;;;;;;;;;5052305;28;20128;-17
2020/12/30 00:10:20;;;;;;;0.85;0.57;;;;;;;;;;5050911;28;20060;-17
2020/12/30 00:12:45;;;;;;;0.73;0.50;;;;;;;;;;5052108;28;20488;-17
2020/12/30 00:15:11;;;;;;;3.00;0.93;;;;;;;;;;5050783;28;20070;-17
2020/12/30 00:17:40;;;;;;;0.95;0.38;;;;;;;;;;5052111;28;20029;-17
2020/12/30 00:20:09;;;;;;;3.53;0.40;;;;;;;;;;5052147;28;20009;-17
2020/12/30 00:22:35;;;;;;;0.63;0.30;;;;;;;;;;5050888;28;20068;-17
2020/12/30 00:25:00;;;;;;;0.60;0.60;;;;;;;;;;5037317;28;20052;-17
2020/12/30 00:27:26;;;;;;;0.28;0.28;;;;;;;;;;5054803;28;20128;-17
2020/12/30 00:29:52;;;;;;;0.57;0.47;;;;;;;;;;5054923;28;20471;-17
2020/12/30 00:32:17;;;;;;;1.92;0.63;;;;;;;;;;5054884;28;20124;-17
2020/12/30 00:34:42;;;;;;;0.93;0.50;;;;;;;;;;5056058;28;20021;-17
2020/12/30 00:37:08;;;;;;;0.77;0.47;;;;;;;;;;5054597;28;20052;-17
2020/12/30 00:39:34;;;;;;;0.65;0.50;;;;;;;;;;5054559;28;20017;-16
2020/12/30 00:41:59;;;;;;;0.50;0.50;;;;;;;;;;5056003;28;20021;-18
2020/12/30 00:44:25;;;;;;;3.25;0.50;;;;;;;;;;5055753;28;20028;-17
2020/12/30 00:46:51;;;;;;;1.75;0.77;;;;;;;;;;5055805;28;20395;-17
2020/12/30 00:49:16;;;;;;;0.77;0.60;;;;;;;;;;5054203;28;20078;-16
2020/12/30 00:51:47;;;;;;;0.55;0.50;;;;;;;;;;5054333;28;20037;-18
2020/12/30 00:54:12;;;;;;;0.60;0.40;;;;;;;;;;5054224;28;20487;-17
2020/12/30 00:56:38;;;;;;;0.68;0.30;;;;;;;;;;5037815;28;20057;-17
2020/12/30 00:59:05;;;;;;;0.70;0.50;;;;;;;;;;5055568;28;20081;-24
2020/12/30 01:01:30;;;;;;;0.85;0.40;;;;;;;;;;5054111;28;20434;-18
2020/12/30 01:04:14;;;;;;;0.40;0.40;;;;;;;;;;5055682;28;20032;-17
2020/12/30 01:06:40;;;;;;;0.85;0.43;;;;;;;;;;5055731;28;20384;-17
2020/12/30 01:09:06;;;;;;;0.20;0.20;;;;;;;;;;5055677;28;20066;-17
2020/12/30 01:11:31;;;;;;;0.40;0.40;;;;;;;;;;5055282;28;20480;-17
2020/12/30 01:13:57;;;;;;;0.20;0.20;;;;;;;;;;5055498;28;20024;-18
2020/12/30 01:16:22;;;;;;;0.50;0.50;;;;;;;;;;5055192;28;20488;-17
2020/12/30 01:18:50;;;;;;;0.30;0.30;;;;;;;;;;5055477;28;20112;-17
2020/12/30 01:21:16;;;;;;;0.88;0.57;;;;;;;;;;5055055;28;20083;-17
2020/12/30 01:23:42;;;;;;;0.75;0.30;;;;;;;;;;5053803;28;20471;-17
2020/12/30 01:26:08;;;;;;;1.65;0.55;;;;;;;;;;5055412;28;20400;-17
2020/12/30 01:28:33;;;;;;;0.57;0.40;;;;;;;;;;5054925;28;20108;-17
2020/12/30 01:30:59;;;;;;;1.17;0.70;;;;;;;;;;5054795;28;20098;-17
2020/12/30 01:33:24;;;;;;;2.65;0.80;;;;;;;;;;5053641;28;20024;-17
2020/12/30 01:35:50;;;;;;;2.08;0.57;;;;;;;;;;5036097;28;20119;-17
2020/12/30 01:38:15;;;;;;;1.83;0.70;;;;;;;;;;5054797;28;20021;-17
2020/12/30 01:40:41;;;;;;;1.17;0.60;;;;;;;;;;5055053;28;20025;-17
2020/12/30 01:43:06;;;;;;;1.63;0.63;;;;;;;;;;5054659;28;20506;-17
2020/12/30 01:45:31;;;;;;;1.45;0.45;;;;;;;;;;5054963;28;20025;-17
2020/12/30 01:47:57;;;;;;;1.13;0.40;;;;;;;;;;5054771;28;20096;-17
2020/12/30 01:50:22;;;;;;;2.55;0.60;;;;;;;;;;5053067;28;20136;-16
2020/12/30 01:52:47;;;;;;;1.15;0.55;;;;;;;;;;5054495;28;20399;-17
2020/12/30 01:55:16;;;;;;;0.45;0.30;;;;;;;;;;5054770;28;20036;-17
2020/12/30 01:57:41;;;;;;;2.83;0.50;;;;;;;;;;5054512;28;20052;-16
2020/12/30 02:00:07;;;;;;;2.72;0.45;;;;;;;;;;5054407;28;20044;-16
2020/12/30 02:02:33;;;;;;;0.30;0.20;;;;;;;;;;5054406;28;20021;-16
2020/12/30 02:05:00;;;;;;;0.50;0.30;;;;;;;;;;5054561;28;20489;-17
2020/12/30 02:07:25;;;;;;;0.63;0.20;;;;;;;;;;5053355;28;20414;-17
2020/12/30 02:09:52;;;;;;;0.93;0.40;;;;;;;;;;5054297;28;20032;-17
2020/12/30 02:12:17;;;;;;;0.45;0.30;;;;;;;;;;5036105;28;20036;-17
2020/12/30 02:14:43;;;;;;;1.63;0.40;;;;;;;;;;5054209;28;20021;-17
2020/12/30 02:17:15;;;;;;;0.45;0.30;;;;;;;;;;5052836;28;20491;-17
2020/12/30 02:19:40;;;;;;;0.63;0.45;;;;;;;;;;5054342;28;20456;-18
2020/12/30 02:22:07;;;;;;;0.30;0.30;;;;;;;;;;5054105;28;20020;-17
2020/12/30 02:24:33;;;;;;;4.18;2.85;;;;;;;;;;5052660;28;20514;-17
2020/12/30 02:26:59;;;;;;;1.00;0.47;;;;;;;;;;5053898;28;20036;-17
2020/12/30 02:29:25;;;;;;;6.60;3.88;;;;;;;;;;5053795;28;20681;-17
2020/12/30 02:31:50;;;;;;;3.50;2.45;;;;;;;;;;5052830;28;20056;-17
2020/12/30 02:34:16;;;;;;;3.00;1.98;;;;;;;;;;5052410;28;20456;-17
2020/12/30 02:36:41;;;;;;;0.95;0.55;;;;;;;;;;5052505;28;20024;-17
2020/12/30 02:39:06;;;;;;;2.70;0.90;;;;;;;;;;5053612;28;20040;-16
2020/12/30 02:41:32;;;;;;;0.35;0.35;;;;;;;;;;5053873;28;20119;-17
2020/12/30 02:43:58;;;;;;;0.35;0.35;;;;;;;;;;5053853;28;20113;-17
2020/12/30 02:46:24;;;;;;;1.38;0.82;;;;;;;;;;5053696;28;20064;-17
2020/12/30 02:48:49;;;;;;;1.52;0.63;;;;;;;;;;5053566;28;20064;-17
2020/12/30 02:51:14;;;;;;;1.02;0.55;;;;;;;;;;5053183;28;20145;-18
2020/12/30 02:53:40;;;;;;;2.20;0.43;;;;;;;;;;5053378;28;20025;-18
2020/12/30 02:56:05;;;;;;;0.55;0.30;;;;;;;;;;5053427;28;20013;-17
2020/12/30 02:58:30;;;;;;;3.05;0.63;;;;;;;;;;5053332;28;20099;-17
2020/12/30 03:00:56;;;;;;;0.57;0.28;;;;;;;;;;5051910;28;20533;-17
2020/12/30 03:03:21;;;;;;;0.63;0.57;;;;;;;;;;5053279;28;20029;-17
2020/12/30 03:05:47;;;;;;;3.17;1.40;;;;;;;;;;5053486;28;20021;-17
2020/12/30 03:08:12;;;;;;;1.52;0.80;;;;;;;;;;5053320;28;20040;-17
2020/12/30 03:10:38;;;;;;;1.40;0.70;;;;;;;;;;5051680;28;20108;-17
2020/12/30 03:13:03;;;;;;;0.70;0.55;;;;;;;;;;5052956;28;20083;-17
2020/12/30 03:15:29;;;;;;;1.08;0.55;;;;;;;;;;5051617;28;20036;-18
2020/12/30 03:17:54;;;;;;;0.63;0.52;;;;;;;;;;5053211;28;20032;-17
2020/12/30 03:20:19;;;;;;;0.30;0.30;;;;;;;;;;5051875;28;20525;-17
2020/12/30 03:22:45;;;;;;;0.30;0.30;;;;;;;;;;5052889;28;20076;-17
2020/12/30 03:25:10;;;;;;;0.32;0.32;;;;;;;;;;5052810;28;20023;-17
2020/12/30 03:27:35;;;;;;;0.40;0.40;;;;;;;;;;5052880;28;20064;-17
2020/12/30 03:30:01;;;;;;;0.95;0.32;;;;;;;;;;5052957;28;20082;-17
2020/12/30 03:32:27;;;;;;;1.13;0.32;;;;;;;;;;5052916;28;20068;-17
2020/12/30 03:34:52;;;;;;;0.40;0.30;;;;;;;;;;5052737;28;20036;-17
2020/12/30 03:37:18;;;;;;;0.45;0.45;;;;;;;;;;5052501;28;20482;-17
2020/12/30 03:39:43;;;;;;;4.65;1.42;;;;;;;;;;5052885;28;20032;-17
2020/12/30 03:42:09;;;;;;;1.83;1.10;;;;;;;;;;5052860;28;20078;-17
2020/12/30 03:44:34;;;;;;;3.28;1.27;;;;;;;;;;5052444;28;20017;-17
2020/12/30 03:47:00;;;;;;;4.05;1.38;;;;;;;;;;5034674;28;20486;-17
2020/12/30 03:49:25;;;;;;;1.15;0.60;;;;;;;;;;5052296;28;20147;-18
2020/12/30 03:51:51;;;;;;;9.50;4.03;;;;;;;;;;5052339;28;20479;-17
2020/12/30 03:54:16;;;;;;;16.23;7.00;;;;;;;;;;5052314;28;20029;-16
2020/12/30 03:56:41;;;;;;;2.35;1.50;;;;;;;;;;5052426;28;20032;-17
2020/12/30 03:59:07;;;;;;;1.00;0.60;;;;;;;;;;5051880;28;20025;-17
2020/12/30 04:01:32;;;;;;;2.45;1.08;;;;;;;;;;5052318;28;20029;-17
2020/12/30 04:03:58;;;;;;;1.75;0.80;;;;;;;;;;5052394;28;20016;-17
2020/12/30 04:06:23;;;;;;;0.47;0.40;;;;;;;;;;5034265;28;20115;-17
2020/12/30 04:08:48;;;;;;;1.30;0.95;;;;;;;;;;5052617;28;20025;-17
2020/12/30 04:11:14;;;;;;;0.50;0.40;;;;;;;;;;5052308;28;20183;-17
2020/12/30 04:13:39;;;;;;;1.20;0.68;;;;;;;;;;5052170;28;20048;-17
2020/12/30 04:16:04;;;;;;;0.50;0.40;;;;;;;;;;5052504;28;20079;-18
2020/12/30 04:18:30;;;;;;;0.75;0.52;;;;;;;;;;5052127;28;20519;-17
2020/12/30 04:20:55;;;;;;;1.08;0.60;;;;;;;;;;5052283;28;20021;-17
2020/12/30 04:23:21;;;;;;;1.70;0.90;;;;;;;;;;5050885;28;20049;-17
2020/12/30 04:25:48;;;;;;;0.98;0.47;;;;;;;;;;5050833;28;20065;-17
2020/12/30 04:28:16;;;;;;;4.53;0.47;;;;;;;;;;5051961;28;20032;-17
2020/12/30 04:30:42;;;;;;;1.17;0.50;;;;;;;;;;5052071;28;20029;-17
2020/12/30 04:33:08;;;;;;;2.25;1.00;;;;;;;;;;5051871;28;20037;-17
2020/12/30 04:35:34;;;;;;;1.63;0.90;;;;;;;;;;5051972;28;20498;-17
2020/12/30 04:37:59;;;;;;;1.88;1.10;;;;;;;;;;5052134;28;20102;-17
2020/12/30 04:40:25;;;;;;;1.10;0.80;;;;;;;;;;5051788;28;20484;-17
2020/12/30 04:42:51;;;;;;;0.95;0.75;;;;;;;;;;5051958;28;20063;-17
2020/12/30 04:45:17;;;;;;;0.70;0.57;;;;;;;;;;5052143;28;20044;-17
2020/12/30 04:47:44;;;;;;;0.63;0.55;;;;;;;;;;5051964;28;20029;-17
2020/12/30 04:50:10;;;;;;;0.68;0.68;;;;;;;;;;5051714;28;20056;-17
2020/12/30 04:52:36;;;;;;;0.98;0.50;;;;;;;;;;5050541;28;20044;-18
2020/12/30 04:55:02;;;;;;;0.88;0.70;;;;;;;;;;5052157;28;20032;-18
2020/12/30 04:57:54;;;;;;;5.75;0.88;;;;;;;;;;5050450;28;20029;-17
2020/12/30 05:00:19;;;;;;;0.60;0.40;;;;;;;;;;5043240;28;20460;-17
2020/12/30 05:02:49;;;;;;;1.15;0.85;;;;;;;;;;5050483;28;20019;-17
2020/12/30 05:05:16;;;;;;;0.40;0.40;;;;;;;;;;5050496;28;20084;-17
2020/12/30 05:07:42;;;;;;;0.63;0.43;;;;;;;;;;5051761;28;20024;-17
2020/12/30 05:10:08;;;;;;;0.50;0.50;;;;;;;;;;5051654;28;20029;-18
2020/12/30 05:12:33;;;;;;;0.32;0.32;;;;;;;;;;5055255;28;20087;-17
2020/12/30 05:14:58;;;;;;;0.32;0.32;;;;;;;;;;5055595;28;20029;-17
2020/12/30 05:17:24;;;;;;;0.30;0.30;;;;;;;;;;5055415;28;20064;-17
2020/12/30 05:19:49;;;;;;;0.68;0.68;;;;;;;;;;5055111;28;20107;-18
2020/12/30 05:22:18;;;;;;;0.70;0.50;;;;;;;;;;5055364;28;20032;-17
2020/12/30 05:24:45;;;;;;;0.60;0.47;;;;;;;;;;5055114;28;20028;-17
2020/12/30 05:27:10;;;;;;;0.30;0.30;;;;;;;;;;5055106;28;20028;-17
2020/12/30 05:29:41;;;;;;;1.98;0.50;;;;;;;;;;5054958;28;20025;-17
2020/12/30 05:32:07;;;;;;;3.65;0.40;;;;;;;;;;5054879;28;20155;-16
2020/12/30 05:34:33;;;;;;;0.40;0.40;;;;;;;;;;5054926;28;20067;-17
2020/12/30 05:36:58;;;;;;;0.47;0.40;;;;;;;;;;5054834;28;20064;-17
2020/12/30 05:39:30;;;;;;;2.33;1.15;;;;;;;;;;5054699;28;20017;-17
2020/12/30 05:42:15;;;;;;;0.82;0.60;;;;;;;;;;5055062;28;20031;-17
2020/12/30 05:44:45;;;;;;;0.70;0.70;;;;;;;;;;5036910;28;20029;-17
2020/12/30 05:47:15;;;;;;;1.10;0.73;;;;;;;;;;5055089;28;20429;-17
2020/12/30 05:49:41;;;;;;;0.73;0.70;;;;;;;;;;5054503;28;20049;-17
2020/12/30 05:52:13;;;;;;;1.17;0.68;;;;;;;;;;5054548;28;20047;-17
2020/12/30 05:54:39;;;;;;;1.13;0.85;;;;;;;;;;5054632;28;20029;-17
2020/12/30 05:57:22;;;;;;;0.75;0.63;;;;;;;;;;5054799;28;20028;-17
2020/12/30 05:59:49;;;;;;;1.35;0.77;;;;;;;;;;5054385;28;20117;-17
2020/12/30 06:02:15;;;;;;;0.63;0.63;;;;;;;;;;5053104;28;20021;-17
2020/12/30 06:04:40;;;;;;;1.45;0.80;;;;;;;;;;5054421;28;20025;-17
2020/12/30 06:07:11;;;;;;;0.60;0.60;;;;;;;;;;5054536;28;20048;-17
2020/12/30 06:09:40;;;;;;;0.68;0.68;;;;;;;;;;5054277;28;20051;-17
2020/12/30 06:12:06;;;;;;;1.55;0.70;;;;;;;;;;5054500;28;20057;-17
2020/12/30 06:14:32;;;;;;;0.40;0.40;;;;;;;;;;5054151;28;20052;-17
2020/12/30 06:17:01;;;;;;;1.10;1.00;;;;;;;;;;5054480;28;20611;-17
2020/12/30 06:19:27;;;;;;;1.17;0.88;;;;;;;;;;5053944;28;20032;-17
2020/12/30 06:21:52;;;;;;;1.45;0.85;;;;;;;;;;5053950;28;20013;-16
2020/12/30 06:24:18;;;;;;;0.80;0.70;;;;;;;;;;5054030;28;20025;-18
2020/12/30 06:26:43;;;;;;;0.80;0.70;;;;;;;;;;5054266;28;20597;-16
2020/12/30 06:29:10;;;;;;;1.52;1.13;;;;;;;;;;5052932;28;20471;-17
2020/12/30 06:31:48;;;;;;;1.25;1.02;;;;;;;;;;5053635;28;20064;-17
2020/12/30 06:34:15;;;;;;;1.80;1.15;;;;;;;;;;5054034;28;20411;-17
2020/12/30 06:36:41;;;;;;;1.17;0.80;;;;;;;;;;5053829;28;20025;-17
2020/12/30 06:39:22;;;;;;;5.07;2.55;;;;;;;;;;5053726;28;20044;-17
2020/12/30 06:41:59;;;;;;;2.78;1.52;;;;;;;;;;5052686;28;20108;-17
2020/12/30 06:44:36;;;;;;;1.70;1.20;;;;;;;;;;5052270;28;20427;-16
2020/12/30 06:47:02;;;;;;;1.05;0.65;;;;;;;;;;5053911;28;20057;-16
2020/12/30 06:49:27;;;;;;;0.93;0.60;;;;;;;;;;5053446;28;20049;-17
2020/12/30 06:51:53;;;;;;;5.22;1.80;;;;;;;;;;5053740;28;20036;-16
2020/12/30 06:54:18;;;;;;;6.85;4.07;;;;;;;;;;5052079;28;20429;-17
2020/12/30 06:56:44;;;;;;;0.80;0.50;;;;;;;;;;5052395;28;20451;-16
2020/12/30 06:59:17;;;;;;;1.35;1.02;;;;;;;;;;5052061;28;20017;-17
2020/12/30 07:01:52;;;;;;;1.48;0.50;;;;;;;;;;5053321;28;20033;-16
2020/12/30 07:04:17;;;;;;;0.80;0.70;;;;;;;;;;5053107;28;20112;-16
2020/12/30 07:06:43;;;;;;;0.80;0.70;;;;;;;;;;5053170;28;20107;-16
2020/12/30 07:09:08;;;;;;;0.75;0.52;;;;;;;;;;5053192;28;20032;-17
2020/12/30 07:11:41;;;;;;;0.82;0.50;;;;;;;;;;5052968;28;20456;-16
2020/12/30 07:14:06;;;;;;;;;;;;;;;;;;5035690;28;20029;-17
2020/12/30 07:16:38;;;;;;;2.10;0.60;;;;;;;;;;5052138;28;19904;-17
2020/12/30 07:19:17;;;;;;;0.63;0.57;;;;;;;;;;5052888;28;20029;-17
2020/12/30 07:21:49;;;;;;;1.77;0.95;;;;;;;;;;5052958;28;20424;-17
2020/12/30 07:24:22;;;;;;;1.20;0.90;;;;;;;;;;5051613;28;20033;-16
2020/12/30 07:26:48;;;;;;;1.00;0.85;;;;;;;;;;5053150;28;20404;-16
2020/12/30 07:29:14;;;;;;;0.98;0.82;;;;;;;;;;5052763;28;20056;-17
2020/12/30 07:31:40;;;;;;;1.10;0.52;;;;;;;;;;5051220;28;20076;-16
2020/12/30 07:34:19;;;;;;;0.73;0.50;;;;;;;;;;5052426;28;20025;-17
2020/12/30 07:36:45;;;;;;;1.10;0.80;;;;;;;;;;5052688;28;20028;-18
2020/12/30 07:39:11;;;;;;;1.33;1.10;;;;;;;;;;5051337;28;20028;-16
2020/12/30 07:41:36;;;;;;;1.38;0.80;;;;;;;;;;5051362;28;20025;-16
2020/12/30 07:44:03;;;;;;;2.33;1.40;;;;;;;;;;5052619;28;20090;-17
2020/12/30 07:46:28;;;;;;;2.47;1.23;;;;;;;;;;5052714;28;20033;-16
2020/12/30 07:49:05;;;;;;;9.30;5.28;;;;;;;;;;5052507;28;20019;-15
2020/12/30 07:51:30;;;;;;;2.70;1.30;;;;;;;;;;5050988;28;20462;-17
2020/12/30 07:53:56;;;;;;;5.75;1.70;;;;;;;;;;5052627;28;20044;-18
2020/12/30 07:56:22;;;;;;;1.98;1.10;;;;;;;;;;5052374;28;20426;-16
2020/12/30 07:58:48;;;;;;;6.97;2.05;;;;;;;;;;5052624;28;20047;-17
2020/12/30 08:01:15;;;;;;;4.75;2.15;;;;;;;;;;5052318;28;20040;-17
2020/12/30 08:03:40;;;;;;;12.30;3.85;;;;;;;;;;5052255;28;20021;-18
2020/12/30 08:06:08;;;;;;;1.23;1.13;;;;;;;;;;5052536;28;20033;-17
2020/12/30 08:08:33;;;;;;;1.73;1.38;;;;;;;;;;5052204;28;20016;-17
2020/12/30 08:10:59;;;;;;;1.52;1.10;;;;;;;;;;5050980;28;20074;-17
2020/12/30 08:13:24;;;;;;;2.38;1.85;;;;;;;;;;5050804;28;20036;-17
2020/12/30 08:15:52;;;;;;;6.65;2.33;;;;;;;;;;5050862;28;20025;-17
2020/12/30 08:18:18;;;;;;;8.18;4.00;;;;;;;;;;5052116;28;20147;-18
2020/12/30 08:20:44;;;;;;;4.00;2.33;;;;;;;;;;5050850;28;20059;-17
2020/12/30 08:23:09;;;;;;;6.43;2.22;;;;;;;;;;5052119;28;20024;-18
2020/12/30 08:25:34;;;;;;;5.05;2.63;;;;;;;;;;5051732;28;20098;-17
2020/12/30 08:28:02;;;;;;;2.97;2.03;;;;;;;;;;5050721;28;20426;-18
2020/12/30 08:30:31;;;;;;;3.22;1.48;;;;;;;;;;5052064;28;20029;-17
2020/12/30 08:32:58;;;;;;;2.08;1.10;;;;;;;;;;5050293;28;20028;-17
2020/12/30 08:35:27;;;;;;;2.95;1.58;;;;;;;;;;5051877;28;20029;-17
2020/12/30 08:38:06;;;;;;;7.55;1.27;;;;;;;;;;5052010;28;20080;-16
2020/12/30 08:40:35;;;;;;;2.67;1.60;;;;;;;;;;5051083;28;20025;-17
2020/12/30 08:43:10;;;;;;;4.25;2.05;;;;;;;;;;5050922;28;20020;-17
2020/12/30 08:45:38;;;;;;;2.33;1.63;;;;;;;;;;5054308;28;20029;-26
2020/12/30 08:48:14;;;;;;;2.20;1.77;;;;;;;;;;5055860;28;20028;-17
2020/12/30 08:50:40;;;;;;;3.22;2.13;;;;;;;;;;5055561;28;20148;-17
2020/12/30 08:53:05;;;;;;;3.72;1.88;;;;;;;;;;5054375;28;20124;-17
2020/12/30 08:55:31;;;;;;;2.92;1.88;;;;;;;;;;5055896;28;20414;-18
2020/12/30 08:57:57;;;;;;;1.65;0.95;;;;;;;;;;5054383;28;20020;-17
2020/12/30 09:00:23;;;;;;;7.63;3.55;;;;;;;;;;5055579;28;20025;-18
2020/12/30 09:02:49;;;;;;;3.67;2.20;;;;;;;;;;5055892;28;20685;-17
2020/12/30 09:05:27;;;;;;;1.60;1.30;;;;;;;;;;5054242;28;20036;-16
2020/12/30 09:07:53;;;;;;;4.78;1.63;;;;;;;;;;5055415;28;20021;-18
2020/12/30 09:10:19;;;;;;;1.13;0.80;;;;;;;;;;5054146;28;20353;-18
2020/12/30 09:12:44;;;;;;;3.10;1.90;;;;;;;;;;5055515;28;20044;-17
2020/12/30 09:15:10;;;;;;;3.53;1.73;;;;;;;;;;5055406;28;20017;-17
2020/12/30 09:17:36;;;;;;;2.30;1.42;;;;;;;;;;5055324;28;20072;-17
2020/12/30 09:20:08;;;;;;;18.00;5.80;;;;;;;;;;5055128;28;20424;-17
2020/12/30 09:22:33;;;;;;;2.80;1.63;;;;;;;;;;5054019;28;20058;-17
2020/12/30 09:24:59;;;;;;;3.13;1.50;;;;;;;;;;5055372;28;20460;-18
2020/12/30 09:27:24;;;;;;;2.80;1.45;;;;;;;;;;5055080;28;20471;-17
2020/12/30 09:30:08;;;;;;;2.45;1.58;;;;;;;;;;5055105;28;20013;-17
2020/12/30 09:32:34;;;;;;;9.25;3.80;;;;;;;;;;5054829;28;20569;-17
2020/12/30 09:35:00;;;;;;;5.18;2.10;;;;;;;;;;5054915;28;20017;-17
2020/12/30 09:37:25;;;;;;;9.00;4.75;;;;;;;;;;5054912;28;20039;-17
2020/12/30 09:40:09;;;;;;;3.83;1.98;;;;;;;;;;5054759;28;20013;-18
2020/12/30 09:42:35;;;;;;;2.53;1.80;;;;;;;;;;5055060;28;20063;-17
2020/12/30 09:45:02;;;;;;;2.58;1.63;;;;;;;;;;5054783;28;20017;-17
2020/12/30 09:47:28;;;;;;;2.85;1.40;;;;;;;;;;5054676;28;20100;-17
2020/12/30 09:49:53;;;;;;;4.43;2.45;;;;;;;;;;5054535;28;20072;-19
2020/12/30 09:52:18;;;;;;;3.85;1.95;;;;;;;;;;5054613;28;20036;-17
2020/12/30 09:54:44;;;;;;;2.33;1.45;;;;;;;;;;5053339;28;20515;-17
2020/12/30 09:57:09;;;;;;;4.97;2.60;;;;;;;;;;5053840;28;20071;-19
2020/12/30 09:59:34;;;;;;;4.53;2.10;;;;;;;;;;5036502;28;20019;-17
2020/12/30 10:02:00;;;;;;;5.18;2.90;;;;;;;;;;5054529;28;20029;-17
2020/12/30 10:04:25;;;;;;;3.17;2.67;;;;;;;;;;5053145;28;20387;-17
2020/12/30 10:06:51;;;;;;;5.20;2.90;;;;;;;;;;5054365;28;20501;-18
2020/12/30 10:09:16;;;;;;;4.93;3.47;;;;;;;;;;5054493;28;20017;-18
2020/12/30 10:11:41;;;;;;;2.47;2.28;;;;;;;;;;5054515;28;20056;-17
2020/12/30 10:14:07;;;;;;;2.78;1.23;;;;;;;;;;5054239;28;20025;-17
2020/12/30 10:16:33;;;;;;;0.95;0.80;;;;;;;;;;5054375;28;20044;-17
2020/12/30 10:18:58;;;;;;;1.55;1.40;;;;;;;;;;5054338;28;20021;-17
2020/12/30 10:21:30;;;;;;;0.68;0.52;;;;;;;;;;5052751;28;20036;-17
2020/12/30 10:23:56;;;;;;;1.95;0.88;;;;;;;;;;5052690;28;20063;-18
2020/12/30 10:26:21;;;;;;;0.63;0.60;;;;;;;;;;5053999;28;20056;-17
2020/12/30 10:28:47;;;;;;;0.60;0.57;;;;;;;;;;5053942;28;20028;-17
2020/12/30 10:31:12;;;;;;;1.67;0.88;;;;;;;;;;5054082;28;20071;-17
2020/12/30 10:33:38;;;;;;;0.98;0.70;;;;;;;;;;5053845;28;20044;-17
2020/12/30 10:36:05;;;;;;;1.02;0.70;;;;;;;;;;5053777;28;20029;-17
2020/12/30 10:38:31;;;;;;;0.65;0.60;;;;;;;;;;5053716;28;20167;-18
2020/12/30 10:40:56;;;;;;;0.73;0.68;;;;;;;;;;5054064;28;20491;-17
2020/12/30 10:43:21;;;;;;;5.28;0.80;;;;;;;;;;5035663;28;20040;-18
2020/12/30 10:45:47;;;;;;;1.55;0.80;;;;;;;;;;5053692;28;20029;-17
2020/12/30 10:48:12;;;;;;;0.52;0.50;;;;;;;;;;5053660;28;20070;-17
2020/12/30 10:50:37;;;;;;;1.73;0.70;;;;;;;;;;5053395;28;20041;-18
2020/12/30 10:53:03;;;;;;;0.60;0.57;;;;;;;;;;5052224;28;20049;-17
2020/12/30 10:55:28;;;;;;;2.20;1.55;;;;;;;;;;5053328;28;20025;-17
2020/12/30 10:57:54;;;;;;;1.48;0.60;;;;;;;;;;5052452;28;20531;-17
2020/12/30 11:00:22;;;;;;;0.90;0.90;;;;;;;;;;5053345;28;20013;-17
2020/12/30 11:02:47;;;;;;;0.90;0.57;;;;;;;;;;5053355;28;20116;-17
2020/12/30 11:05:13;;;;;;;3.22;0.75;;;;;;;;;;5053263;28;20446;-17
2020/12/30 11:07:38;;;;;;;1.33;1.10;;;;;;;;;;5052941;28;20039;-17
2020/12/30 11:10:04;;;;;;;1.50;1.40;;;;;;;;;;5052669;28;20459;-16
2020/12/30 11:12:29;;;;;;;0.95;0.85;;;;;;;;;;5053264;28;20499;-18
2020/12/30 11:14:55;;;;;;;1.63;0.80;;;;;;;;;;5053331;28;20013;-17
2020/12/30 11:17:20;;;;;;;0.75;0.73;;;;;;;;;;5053045;28;20065;-18
2020/12/30 11:19:45;;;;;;;0.80;0.73;;;;;;;;;;5053196;28;20017;-16
2020/12/30 11:22:11;;;;;;;2.83;0.95;;;;;;;;;;5051741;28;20037;-17
2020/12/30 11:24:36;;;;;;;1.35;1.08;;;;;;;;;;5052928;28;20021;-17
2020/12/30 11:27:01;;;;;;;1.05;0.80;;;;;;;;;;5053134;28;20517;-17
2020/12/30 11:29:27;;;;;;;0.68;0.68;;;;;;;;;;5053011;28;20028;-17
2020/12/30 11:31:52;;;;;;;1.10;0.80;;;;;;;;;;5052394;28;20422;-18
2020/12/30 11:34:23;;;;;;;0.68;0.60;;;;;;;;;;4870360;28;10000977;-18
2020/12/30 11:36:49;;;;;;;6.25;1.10;;;;;;;;;;5047242;28;20279;-17
2020/12/30 11:39:14;;;;;;;1.70;1.40;;;;;;;;;;5049280;28;20024;-19
2020/12/30 11:41:40;;;;;;;1.73;1.63;;;;;;;;;;5030187;28;20245;-18
2020/12/30 11:44:06;;;;;;;1.20;1.15;;;;;;;;;;5029187;28;20089;-18
2020/12/30 11:46:31;;;;;;;1.02;1.00;;;;;;;;;;5027568;28;20037;-20
2020/12/30 11:48:58;;;;;;;1.40;1.20;;;;;;;;;;5028997;28;20021;-19
2020/12/30 11:51:24;;;;;;;0.80;0.60;;;;;;;;;;5048380;28;20049;-18
2020/12/30 11:53:49;;;;;;;0.95;0.60;;;;;;;;;;5049045;28;20033;-18
2020/12/30 11:56:21;;;;;;;0.70;0.60;;;;;;;;;;5048620;28;20349;-18
2020/12/30 11:58:46;;;;;;;0.82;0.60;;;;;;;;;;5048560;28;20033;-18
2020/12/30 12:01:12;;;;;;;0.50;0.40;;;;;;;;;;5048921;28;20017;-18
2020/12/30 12:03:37;;;;;;;0.50;0.50;;;;;;;;;;5048510;28;20028;-18
2020/12/30 12:06:03;;;;;;;4.28;0.52;;;;;;;;;;5048407;28;20475;-18
2020/12/30 12:08:28;;;;;;;1.55;0.73;;;;;;;;;;5048571;28;20375;-19
2020/12/30 12:10:53;;;;;;;0.65;0.63;;;;;;;;;;5048592;28;20449;-19
2020/12/30 12:13:19;;;;;;;0.90;0.80;;;;;;;;;;5048985;28;20447;-19
2020/12/30 12:15:44;;;;;;;0.63;0.40;;;;;;;;;;5048459;28;20063;-18
2020/12/30 12:18:09;;;;;;;4.43;2.30;;;;;;;;;;5047412;28;20059;-19
2020/12/30 12:20:35;;;;;;;3.65;2.13;;;;;;;;;;5050622;28;20036;-18
2020/12/30 12:23:03;;;;;;;4.07;2.13;;;;;;;;;;5050688;28;20029;-18
2020/12/30 12:25:29;;;;;;;3.22;1.80;;;;;;;;;;5052685;28;20078;-19
2020/12/30 12:27:54;;;;;;;2.55;1.50;;;;;;;;;;5052756;28;20024;-19
2020/12/30 12:30:19;;;;;;;9.13;1.63;;;;;;;;;;5052671;28;20112;-19
2020/12/30 12:32:45;;;;;;;7.45;2.33;;;;;;;;;;5052091;28;20079;-19
2020/12/30 12:35:10;;;;;;;2.63;1.55;;;;;;;;;;5052399;28;20807;-19
2020/12/30 12:37:36;;;;;;;3.20;2.30;;;;;;;;;;5052686;28;20098;-27
2020/12/30 12:45:35;;;;;;;3.22;2.60;;;;;;;;;;4551989;29;10000629;-24
2020/12/30 12:48:04;;;;;;;4.07;3.10;;;;;;;;;;4880515;29;20045;-20
2020/12/30 12:50:30;;;;;;;5.75;3.25;;;;;;;;;;4865110;29;20032;-22
2020/12/30 12:52:57;;;;;;;4.28;3.33;;;;;;;;;;4880763;29;20139;-25
2020/12/30 12:55:22;;;;;;;7.88;2.63;;;;;;;;;;4897659;29;20099;-22
2020/12/30 12:57:48;;;;;;;2.53;2.10;;;;;;;;;;4897757;29;20028;-21
2020/12/30 13:00:13;;;;;;;5.88;3.22;;;;;;;;;;4879928;29;20100;-20
2020/12/30 13:02:39;;;;;;;4.32;2.30;;;;;;;;;;4897463;29;20045;-20
2020/12/30 13:05:04;;;;;;;3.42;1.83;;;;;;;;;;4880224;29;20024;-21
2020/12/30 13:07:29;;;;;;;4.03;2.15;;;;;;;;;;4896829;29;20036;-23
2020/12/30 13:09:55;;;;;;;1.33;1.23;;;;;;;;;;4897233;29;20021;-20
2020/12/30 13:12:20;;;;;;;1.30;1.20;;;;;;;;;;4880167;29;20083;-22
2020/12/30 13:14:47;;;;;;;2.22;1.10;;;;;;;;;;4897002;29;20474;-24
2020/12/30 13:17:12;;;;;;;1.73;0.90;;;;;;;;;;4877349;29;20071;-21
2020/12/30 13:19:38;;;;;;;16.75;1.45;;;;;;;;;;4896658;29;20095;-21
2020/12/30 13:22:04;;;;;;;1.98;1.08;;;;;;;;;;4896401;29;20033;-22
2020/12/30 13:24:30;;;;;;;1.25;1.10;;;;;;;;;;4896917;29;20073;-22
2020/12/30 13:26:55;;;;;;;14.50;1.98;;;;;;;;;;4879765;29;20044;-22
2020/12/30 13:29:21;;;;;;;2.97;1.02;;;;;;;;;;4896959;29;20032;-24
2020/12/30 13:31:50;;;;;;;1.45;1.05;;;;;;;;;;4895276;29;20041;-24
2020/12/30 13:34:16;;;;;;;4.78;0.60;;;;;;;;;;4896920;29;20100;-21
2020/12/30 13:36:41;;;;;;;1.88;0.93;;;;;;;;;;4896582;29;20691;-23
2020/12/30 13:39:06;;;;;;;1.92;0.60;;;;;;;;;;4896769;29;20021;-23
2020/12/30 13:41:35;;;;;;;1.38;0.75;;;;;;;;;;4896630;29;20051;-23
2020/12/30 13:44:00;;;;;;;5.18;1.98;;;;;;;;;;4895886;29;20123;-21
2020/12/30 13:46:26;;;;;;;2.08;1.00;;;;;;;;;;4896206;29;20439;-20
2020/12/30 13:48:51;;;;;;;3.90;1.73;;;;;;;;;;4896088;29;20051;-23
2020/12/30 13:51:18;;;;;;;12.68;2.83;;;;;;;;;;4879033;29;20032;-28
2020/12/30 13:53:43;;;;;;;0.70;0.60;;;;;;;;;;4895946;29;20407;-20
2020/12/30 13:56:08;;;;;;;1.17;0.90;;;;;;;;;;4895585;29;20043;-21
2020/12/30 13:58:34;;;;;;;3.45;1.67;;;;;;;;;;4895663;29;20036;-22
2020/12/30 14:00:59;;;;;;;0.73;0.57;;;;;;;;;;4895874;29;20033;-22
2020/12/30 14:03:25;;;;;;;3.38;1.13;;;;;;;;;;4895947;29;20025;-22
2020/12/30 14:05:52;;;;;;;0.77;0.50;;;;;;;;;;4878828;29;20473;-21
2020/12/30 14:08:18;;;;;;;1.13;0.80;;;;;;;;;;4895479;29;20016;-22
2020/12/30 14:10:44;;;;;;;6.60;1.77;;;;;;;;;;4895501;29;20060;-23
2020/12/30 14:13:10;;;;;;;0.90;0.70;;;;;;;;;;4895161;29;20139;-22
2020/12/30 14:15:35;;;;;;;5.03;1.58;;;;;;;;;;4895609;29;20586;-22
2020/12/30 14:18:01;;;;;;;1.92;1.20;;;;;;;;;;4878935;29;20021;-23
2020/12/30 14:20:26;;;;;;;2.65;2.15;;;;;;;;;;4895399;29;20037;-23
2020/12/30 14:22:52;;;;;;;1.50;1.20;;;;;;;;;;4878523;29;20036;-21
2020/12/30 14:25:17;;;;;;;0.90;0.68;;;;;;;;;;4895546;29;20036;-21
2020/12/30 14:27:42;;;;;;;5.57;2.83;;;;;;;;;;4895822;29;20033;-22
2020/12/30 14:30:08;;;;;;;0.50;0.50;;;;;;;;;;4878466;29;20556;-22
2020/12/30 14:32:33;;;;;;;1.95;1.27;;;;;;;;;;4898395;29;20044;-22
2020/12/30 14:34:59;;;;;;;19.60;1.75;;;;;;;;;;4898455;29;20032;-22
2020/12/30 14:37:24;;;;;;;1.23;0.82;;;;;;;;;;4556840;29;10000568;-21
2020/12/30 14:39:50;;;;;;;8.40;4.55;;;;;;;;;;4895332;29;20060;-23
2020/12/30 14:42:16;;;;;;;1.90;1.80;;;;;;;;;;4895137;29;20013;-22
2020/12/30 14:44:42;;;;;;;3.08;2.67;;;;;;;;;;4894593;29;20089;-22